< < Back
Terminal Aerodrome Forecast


Current Version              Previous Versions:   1  2  3  4  5  6  7  8  9  

Terminal Aerodrome Forecast

377
FTUS44 KMOB 231600 AAA
TAFPNS
TAF AMD
KPNS 231611Z 2316/2412 02008KT P6SM FEW200
      TEMPO 2316/2318 BKN012
     FM231900 04009KT P6SM SCT010
     FM232100 06009KT P6SM SKC=

Latest METAR

371
SAUS70 KWBC 231600 RRC
MTRPNS
METAR KPNS 231553Z 02007KT 10SM OVC011 20/17 A3011 RMK AO2 SLP199
T02000167


USA.gov is the U.S. government's official web portal to all federal, state and local government web resources and services.